Time;durP1;ratioP1;P1;durP2;ratioP2;P2;SDS_P1;SDS_P2;PMS_P1;PMS_P2;Temp;Humidity;BMP_temperature;BMP_pressure;BME280_temperature;BME280_humidity;BME280_pressure;Samples;Min_cycle;Max_cycle;Signal;HPM_P1;HPM_P2
2022/02/21 00:00:42;;;;;;;3.60;2.83;;;;;;;9.35;86.13;97966.59;5000160;28;20188;-70
2022/02/21 00:03:07;;;;;;;3.23;2.23;;;;;;;9.39;84.89;97973.41;4982366;28;20438;-68
2022/02/21 00:05:34;;;;;;;3.33;2.10;;;;;;;9.07;83.59;97987.34;4999238;28;20176;-68
2022/02/21 00:07:59;;;;;;;3.40;3.10;;;;;;;9.66;82.93;97988.19;4982525;28;20174;-68
2022/02/21 00:10:25;;;;;;;4.87;2.70;;;;;;;9.24;82.61;97984.22;4982452;28;20651;-68
2022/02/21 00:12:51;;;;;;;5.20;2.63;;;;;;;9.31;82.34;97969.31;4999037;28;20163;-66
2022/02/21 00:15:17;;;;;;;2.70;2.20;;;;;;;8.84;82.36;97981.03;4999394;28;20164;-64
2022/02/21 00:17:43;;;;;;;7.00;3.17;;;;;;;8.83;82.30;98004.47;4999072;28;20393;-65
2022/02/21 00:20:09;;;;;;;3.67;1.80;;;;;;;8.62;82.19;98004.16;4982078;28;20441;-64
2022/02/21 00:22:37;;;;;;;5.07;2.50;;;;;;;8.67;82.12;98032.59;4999460;28;20400;-65
2022/02/21 00:25:03;;;;;;;4.00;2.37;;;;;;;8.40;82.79;98046.22;4998810;28;20175;-65
2022/02/21 00:27:28;;;;;;;3.60;2.40;;;;;;;8.20;83.36;98056.22;4998754;28;20390;-67
2022/02/21 00:29:54;;;;;;;5.10;2.40;;;;;;;8.45;82.68;98066.91;4982430;28;20578;-67
2022/02/21 00:32:19;;;;;;;6.70;2.60;;;;;;;8.16;81.96;98068.44;4999218;28;20185;-68
2022/02/21 00:34:44;;;;;;;3.20;2.40;;;;;;;7.90;81.64;98071.63;4999193;28;20274;-65
2022/02/21 00:37:10;;;;;;;3.13;2.00;;;;;;;8.02;80.70;98045.38;4999569;28;20180;-68
2022/02/21 00:39:35;;;;;;;3.77;2.53;;;;;;;8.09;80.46;98026.22;4999019;28;20206;-66
2022/02/21 00:42:01;;;;;;;2.47;2.27;;;;;;;7.85;81.07;98061.34;5000526;28;20537;-66
2022/02/21 00:44:26;;;;;;;3.93;2.10;;;;;;;7.75;82.39;98060.72;4999494;28;20457;-64
2022/02/21 00:46:52;;;;;;;4.43;2.90;;;;;;;9.42;81.21;98050.47;4990566;28;20198;-56
2022/02/21 00:49:17;;;;;;;3.13;2.43;;;;;;;10.23;79.27;98049.72;4985114;28;20206;-55
2022/02/21 00:51:42;;;;;;;3.37;1.90;;;;;;;8.31;76.67;98041.25;4982619;28;20165;-65
2022/02/21 00:54:08;;;;;;;3.60;1.90;;;;;;;7.32;79.50;98071.13;4979551;28;20179;-64
2022/02/21 00:56:33;;;;;;;2.20;1.40;;;;;;;7.29;80.11;98085.00;4979297;28;20168;-65
2022/02/21 00:58:58;;;;;;;1.80;1.70;;;;;;;7.57;79.93;98097.41;4983395;28;20169;-64
2022/02/21 01:01:23;;;;;;;3.77;1.50;;;;;;;7.38;81.10;98096.94;4984091;28;20203;-64
2022/02/21 01:03:49;;;;;;;7.50;4.20;;;;;;;7.68;80.52;98097.19;4983842;28;20444;-65
2022/02/21 01:06:17;;;;;;;7.63;4.30;;;;;;;7.35;81.14;98087.47;4983670;28;20187;-65
2022/02/21 01:08:45;;;;;;;4.50;3.20;;;;;;;7.15;81.77;98085.28;4983145;28;20195;-64
2022/02/21 01:11:12;;;;;;;1.93;1.73;;;;;;;7.25;81.06;98062.63;4983166;28;20908;-65
2022/02/21 01:13:37;;;;;;;3.77;2.57;;;;;;;7.47;81.47;98062.19;4966353;28;20434;-66
2022/02/21 01:16:03;;;;;;;1.93;1.77;;;;;;;7.46;81.10;98066.53;4982901;28;20412;-66
2022/02/21 01:18:28;;;;;;;2.30;1.73;;;;;;;7.21;80.69;98060.97;4949889;28;20553;-64
2022/02/21 01:20:53;;;;;;;2.80;1.57;;;;;;;7.37;80.91;98070.16;4983488;28;20204;-64
2022/02/21 01:23:18;;;;;;;2.70;1.60;;;;;;;7.30;81.16;98067.72;4982765;28;20206;-64
2022/02/21 01:25:44;;;;;;;1.73;1.50;;;;;;;7.12;81.51;98081.88;4966058;28;20525;-65
2022/02/21 01:28:09;;;;;;;2.27;1.43;;;;;;;6.93;81.31;98074.47;4983313;28;20165;-65
2022/02/21 01:30:34;;;;;;;4.17;1.70;;;;;;;7.66;80.78;98075.59;4982756;28;20176;-65
2022/02/21 01:33:00;;;;;;;2.27;1.67;;;;;;;7.49;80.80;98078.56;4982580;28;20480;-65
2022/02/21 01:35:25;;;;;;;1.77;1.60;;;;;;;7.19;81.81;98086.91;4982513;28;20243;-65
2022/02/21 01:37:51;;;;;;;2.10;1.90;;;;;;;7.27;81.42;98091.13;4982596;28;20187;-65
2022/02/21 01:40:16;;;;;;;3.73;1.77;;;;;;;7.71;81.52;98099.69;4982774;28;20437;-64
2022/02/21 01:42:42;;;;;;;2.23;2.03;;;;;;;7.62;81.69;98112.84;4965572;28;20176;-67
2022/02/21 01:45:08;;;;;;;2.17;1.87;;;;;;;7.57;81.86;98128.50;4982395;28;20187;-64
2022/02/21 01:47:33;;;;;;;3.47;2.10;;;;;;;7.23;83.08;98144.72;4982576;28;20183;-64
2022/02/21 01:49:59;;;;;;;3.00;1.70;;;;;;;6.84;82.96;98152.31;4982416;28;20412;-65
2022/02/21 01:52:24;;;;;;;3.73;2.03;;;;;;;6.93;80.69;98172.91;4982348;28;20191;-65
2022/02/21 01:54:50;;;;;;;2.37;1.83;;;;;;;6.86;80.00;98169.56;4982599;28;20196;-64
2022/02/21 01:57:16;;;;;;;2.80;1.97;;;;;;;6.85;79.25;98174.75;4982328;28;20172;-65
2022/02/21 01:59:41;;;;;;;3.20;2.23;;;;;;;7.26;78.74;98170.56;4981892;28;21003;-64
2022/02/21 02:02:07;;;;;;;3.17;2.07;;;;;;;6.53;79.94;98182.16;4982488;28;20419;-64
2022/02/21 02:04:33;;;;;;;2.40;1.73;;;;;;;6.43;79.71;98205.59;4981995;28;20279;-64
2022/02/21 02:07:01;;;;;;;4.50;1.87;;;;;;;6.62;80.17;98207.06;4981952;28;20467;-65
2022/02/21 02:09:27;;;;;;;3.60;1.93;;;;;;;6.55;79.75;98184.72;4982042;28;20168;-64
2022/02/21 02:11:52;;;;;;;4.17;1.87;;;;;;;6.52;79.50;98213.22;4981750;28;20489;-65
2022/02/21 02:14:28;;;;;;;4.73;2.27;;;;;;;6.40;79.30;98204.78;4981660;28;20250;-64
2022/02/21 02:16:53;;;;;;;6.80;2.43;;;;;;;6.29;79.04;98214.44;4965279;28;20176;-64
2022/02/21 02:19:19;;;;;;;4.60;2.30;;;;;;;6.11;79.44;98231.03;4981850;28;20428;-64
2022/02/21 02:21:44;;;;;;;6.13;2.70;;;;;;;6.28;79.10;98222.19;4984933;28;20188;-64
2022/02/21 02:24:09;;;;;;;5.60;2.70;;;;;;;6.45;78.53;98228.00;4966167;28;20188;-65
2022/02/21 02:26:38;;;;;;;6.03;2.80;;;;;;;6.36;78.53;98228.13;4981389;28;20448;-64
2022/02/21 02:29:05;;;;;;;6.30;2.83;;;;;;;6.24;78.60;98230.00;4981765;28;20179;-64
2022/02/21 02:31:30;;;;;;;4.97;2.77;;;;;;;6.38;78.33;98234.16;4981623;28;20394;-63
2022/02/21 02:33:56;;;;;;;8.53;2.90;;;;;;;6.55;78.26;98223.56;4981117;28;20772;-65
2022/02/21 02:36:21;;;;;;;11.10;3.63;;;;;;;6.62;77.51;98230.34;4981875;28;20247;-63
2022/02/21 02:38:46;;;;;;;9.47;4.23;;;;;;;6.52;77.57;98232.22;4981355;28;20199;-63
2022/02/21 02:41:11;;;;;;;5.03;2.80;;;;;;;5.98;77.57;98240.69;4981495;28;20211;-64
2022/02/21 02:43:38;;;;;;;7.10;3.10;;;;;;;6.43;77.86;98234.94;4981534;28;20168;-63
2022/02/21 02:46:04;;;;;;;5.50;2.90;;;;;;;6.47;78.45;98236.59;4981330;28;20171;-65
2022/02/21 02:48:29;;;;;;;5.40;2.70;;;;;;;6.43;78.82;98253.06;4981423;28;20669;-65
2022/02/21 02:50:54;;;;;;;4.63;2.90;;;;;;;6.73;77.66;98256.91;4964846;28;20218;-65
2022/02/21 02:53:20;;;;;;;10.50;3.60;;;;;;;6.34;78.35;98266.13;4981142;28;20203;-64
2022/02/21 02:55:45;;;;;;;9.77;3.50;;;;;;;6.38;78.08;98278.13;4981045;28;20168;-64
2022/02/21 02:58:10;;;;;;;14.30;3.90;;;;;;;6.35;77.50;98283.34;4981788;28;20460;-65
2022/02/21 03:00:36;;;;;;;11.40;5.10;;;;;;;6.75;77.38;98275.03;4980907;28;20200;-64
2022/02/21 03:03:01;;;;;;;5.93;3.23;;;;;;;6.13;77.33;98268.09;4980893;28;20179;-64
2022/02/21 03:05:26;;;;;;;11.87;4.33;;;;;;;6.39;76.53;98283.28;4964509;28;20400;-64
2022/02/21 03:07:52;;;;;;;8.90;3.50;;;;;;;6.60;76.11;98267.50;4963983;28;20169;-64
2022/02/21 03:10:17;;;;;;;11.43;4.60;;;;;;;6.56;76.14;98288.25;4980837;28;20172;-65
2022/02/21 03:12:43;;;;;;;10.97;4.67;;;;;;;6.66;74.70;98291.56;4981084;28;20168;-64
2022/02/21 03:15:09;;;;;;;11.10;4.63;;;;;;;6.74;73.87;98289.72;4980802;28;20171;-64
2022/02/21 03:17:34;;;;;;;12.87;4.70;;;;;;;6.83;72.76;98304.28;4980748;28;20764;-64
2022/02/21 03:20:00;;;;;;;12.77;5.37;;;;;;;6.70;72.17;98295.81;4963478;28;20227;-64
2022/02/21 03:22:25;;;;;;;11.50;4.07;;;;;;;6.26;74.93;98330.03;4980779;28;20550;-64
2022/02/21 03:24:50;;;;;;;8.80;3.90;;;;;;;6.09;76.96;98333.69;4980503;28;20188;-64
2022/02/21 03:27:15;;;;;;;11.17;4.47;;;;;;;5.93;77.66;98345.00;4980819;28;20169;-64
2022/02/21 03:29:42;;;;;;;13.17;4.77;;;;;;;6.08;78.26;98331.97;4980564;28;20501;-64
2022/02/21 03:32:07;;;;;;;12.30;5.13;;;;;;;5.99;77.95;98334.66;4980457;28;20463;-66
2022/02/21 03:34:33;;;;;;;14.67;4.87;;;;;;;6.01;77.61;98336.34;4980522;28;20518;-64
2022/02/21 03:36:58;;;;;;;12.90;4.67;;;;;;;5.81;76.74;98344.28;4980625;28;20183;-64
2022/02/21 03:39:24;;;;;;;10.70;4.70;;;;;;;6.05;76.92;98358.72;4980326;28;20639;-65
2022/02/21 03:41:49;;;;;;;12.20;4.97;;;;;;;6.14;75.01;98364.66;4980238;28;20259;-64
2022/02/21 03:44:15;;;;;;;12.90;4.53;;;;;;;5.96;74.59;98369.13;4980216;28;20416;-66
2022/02/21 03:46:41;;;;;;;14.47;4.47;;;;;;;5.88;73.55;98381.28;4964084;28;20323;-66
2022/02/21 03:49:07;;;;;;;16.20;5.23;;;;;;;6.00;73.45;98375.16;4979986;28;20172;-65
2022/02/21 03:51:32;;;;;;;15.13;4.93;;;;;;;6.14;72.67;98393.13;4980149;28;20473;-65
2022/02/21 03:53:57;;;;;;;17.93;4.77;;;;;;;5.94;73.35;98393.28;4980283;28;20546;-64
2022/02/21 03:56:23;;;;;;;9.17;4.50;;;;;;;5.63;73.15;98419.41;4980044;28;20176;-64
2022/02/21 03:58:48;;;;;;;13.10;5.23;;;;;;;5.91;73.05;98404.50;4980017;28;20204;-65
2022/02/21 04:01:14;;;;;;;17.20;4.77;;;;;;;5.95;72.26;98397.59;4980567;28;20204;-64
2022/02/21 04:03:39;;;;;;;8.40;4.23;;;;;;;6.11;71.78;98406.94;4979777;28;20195;-65
2022/02/21 04:06:04;;;;;;;14.20;5.37;;;;;;;5.82;72.21;98417.50;4979887;28;20223;-65
2022/02/21 04:08:30;;;;;;;18.47;5.20;;;;;;;5.86;71.60;98403.72;4980285;28;20206;-65
2022/02/21 04:10:55;;;;;;;14.40;4.83;;;;;;;5.98;71.90;98413.97;4962877;28;20210;-64
2022/02/21 04:13:20;;;;;;;15.73;5.13;;;;;;;6.01;71.39;98418.25;4979665;28;20504;-65
2022/02/21 04:15:46;;;;;;;11.10;4.40;;;;;;;5.93;70.82;98425.16;4980227;28;20534;-64
2022/02/21 04:18:11;;;;;;;19.70;5.20;;;;;;;5.92;70.87;98424.31;4979774;28;20298;-65
2022/02/21 04:20:36;;;;;;;22.97;5.97;;;;;;;6.03;70.28;98430.28;4979525;28;20298;-64
2022/02/21 04:23:02;;;;;;;12.53;5.17;;;;;;;5.85;69.34;98428.69;4979960;28;20515;-65
2022/02/21 04:25:27;;;;;;;10.90;4.63;;;;;;;6.05;68.41;98436.31;4979300;28;20176;-65
2022/02/21 04:27:54;;;;;;;14.73;5.13;;;;;;;5.93;69.28;98440.69;4979500;28;20247;-65
2022/02/21 04:30:21;;;;;;;12.63;5.00;;;;;;;5.81;68.92;98457.19;4980093;28;20164;-65
2022/02/21 04:32:47;;;;;;;12.23;3.93;;;;;;;5.34;72.12;98492.81;4979314;28;20473;-64
2022/02/21 04:35:13;;;;;;;11.47;4.80;;;;;;;5.74;74.29;98492.56;4962537;28;20487;-64
2022/02/21 04:37:39;;;;;;;14.63;5.23;;;;;;;4.74;75.87;98495.66;4979927;28;20177;-64
2022/02/21 04:40:07;;;;;;;8.90;4.10;;;;;;;4.79;77.91;98494.78;4962425;28;20438;-65
2022/02/21 04:42:32;;;;;;;15.83;3.90;;;;;;;4.82;77.48;98510.25;4979245;28;20168;-64
2022/02/21 04:44:58;;;;;;;12.43;4.17;;;;;;;4.82;77.45;98509.41;4979612;28;20443;-65
2022/02/21 04:47:23;;;;;;;10.10;3.93;;;;;;;4.81;77.74;98512.84;4979248;28;20176;-65
2022/02/21 04:49:48;;;;;;;8.03;3.70;;;;;;;4.85;76.38;98504.22;4979427;28;20168;-66
2022/02/21 04:52:14;;;;;;;8.37;3.83;;;;;;;4.81;75.52;98479.28;4979988;28;20437;-64
2022/02/21 04:54:39;;;;;;;7.73;3.57;;;;;;;4.44;75.91;98498.31;4979141;28;20172;-65
2022/02/21 04:57:04;;;;;;;15.07;3.87;;;;;;;4.65;75.57;98488.81;4979097;28;20179;-65
2022/02/21 04:59:30;;;;;;;10.27;4.17;;;;;;;4.88;75.14;98484.44;4979708;28;20172;-64
2022/02/21 05:01:55;;;;;;;13.80;4.87;;;;;;;5.03;74.64;98496.41;4979204;28;20176;-65
2022/02/21 05:04:20;;;;;;;14.47;4.50;;;;;;;4.80;75.34;98500.78;4978945;28;20406;-64
2022/02/21 05:06:46;;;;;;;10.77;4.00;;;;;;;4.73;75.55;98497.38;4979787;28;20171;-64
2022/02/21 05:09:11;;;;;;;14.77;4.33;;;;;;;4.76;77.04;98483.59;4978993;28;20181;-65
2022/02/21 05:11:36;;;;;;;13.07;4.80;;;;;;;5.00;77.58;98483.50;4979224;28;20231;-65
2022/02/21 05:14:02;;;;;;;14.47;4.23;;;;;;;5.06;78.01;98480.06;4979687;28;20579;-65
2022/02/21 05:16:27;;;;;;;10.33;4.63;;;;;;;5.10;77.07;98488.63;4979192;28;20176;-64
2022/02/21 05:18:52;;;;;;;11.50;4.43;;;;;;;5.09;76.75;98489.47;4979031;28;20180;-64
2022/02/21 05:21:17;;;;;;;12.67;4.50;;;;;;;5.39;77.37;98493.66;4979465;28;20292;-64
2022/02/21 05:23:43;;;;;;;12.43;4.60;;;;;;;5.28;75.65;98492.88;4978635;28;20254;-64
2022/02/21 05:26:08;;;;;;;14.90;4.30;;;;;;;5.22;74.76;98502.34;4978749;28;20196;-64
2022/02/21 05:28:33;;;;;;;18.20;4.70;;;;;;;5.26;73.56;98485.09;4979590;28;20179;-65
2022/02/21 05:30:59;;;;;;;10.50;3.83;;;;;;;5.26;72.98;98500.59;4978857;28;20192;-65
2022/02/21 05:33:24;;;;;;;14.17;5.20;;;;;;;5.28;72.18;98510.94;4978644;28;20176;-64
2022/02/21 05:35:49;;;;;;;10.80;4.67;;;;;;;5.25;72.72;98518.69;4978841;28;20311;-64
2022/02/21 05:38:15;;;;;;;16.63;4.90;;;;;;;5.33;73.52;98507.47;4978774;28;20172;-66
2022/02/21 05:40:40;;;;;;;16.60;4.53;;;;;;;5.53;73.69;98532.31;4979001;28;20203;-64
2022/02/21 05:43:05;;;;;;;9.93;4.30;;;;;;;5.21;74.35;98517.88;4979014;28;20172;-63
2022/02/21 05:45:31;;;;;;;9.10;4.40;;;;;;;4.91;74.99;98519.69;4982406;28;20204;-64
2022/02/21 05:47:56;;;;;;;11.33;5.07;;;;;;;4.85;75.17;98515.41;4982871;28;20210;-63
2022/02/21 05:50:21;;;;;;;11.83;4.37;;;;;;;5.23;74.95;98526.44;4982241;28;20173;-64
2022/02/21 05:52:47;;;;;;;8.70;4.30;;;;;;;5.28;73.44;98529.88;4982113;28;20179;-65
2022/02/21 05:55:12;;;;;;;12.37;4.10;;;;;;;5.17;73.87;98529.09;4983012;28;20164;-64
2022/02/21 05:57:38;;;;;;;12.93;4.23;;;;;;;4.84;74.35;98544.69;4982426;28;20176;-64
2022/02/21 06:00:04;;;;;;;21.30;5.47;;;;;;;4.74;74.89;98542.97;4982126;28;20212;-64
2022/02/21 06:02:30;;;;;;;9.93;3.40;;;;;;;4.55;75.78;98565.38;4982713;28;20613;-64
2022/02/21 06:04:55;;;;;;;7.00;3.70;;;;;;;4.15;77.77;98557.66;4982248;28;20419;-63
2022/02/21 06:07:20;;;;;;;12.03;4.07;;;;;;;4.26;78.80;98570.53;4982250;28;20168;-63
2022/02/21 06:09:46;;;;;;;15.77;5.80;;;;;;;4.39;77.90;98567.09;4983012;28;20443;-65
2022/02/21 06:12:11;;;;;;;10.57;3.53;;;;;;;4.48;77.52;98572.28;4982297;28;20177;-63
2022/02/21 06:14:37;;;;;;;8.67;4.10;;;;;;;4.57;77.93;98584.28;4982030;28;20535;-68
2022/02/21 06:17:03;;;;;;;8.40;3.77;;;;;;;4.43;78.13;98575.72;4983023;28;20479;-63
2022/02/21 06:19:28;;;;;;;9.10;3.60;;;;;;;4.36;77.83;98578.28;4982426;28;20194;-65
2022/02/21 06:21:55;;;;;;;7.23;3.83;;;;;;;4.34;78.91;98581.72;4983277;28;20543;-64
2022/02/21 06:24:21;;;;;;;10.40;4.10;;;;;;;4.54;78.45;98581.72;4983675;28;20192;-66
2022/02/21 06:26:46;;;;;;;10.00;3.90;;;;;;;4.35;78.49;98594.63;4983188;28;20717;-64
2022/02/21 06:29:11;;;;;;;9.80;4.43;;;;;;;4.29;77.60;98579.16;4982014;28;20169;-64
2022/02/21 06:31:37;;;;;;;15.57;3.70;;;;;;;4.78;76.81;98578.25;4982116;28;20211;-64
2022/02/21 06:34:02;;;;;;;15.03;3.83;;;;;;;4.70;75.84;98585.16;4981529;28;20177;-65
2022/02/21 06:36:27;;;;;;;13.30;5.07;;;;;;;4.69;76.12;98589.44;4980586;28;20232;-64
2022/02/21 06:38:53;;;;;;;12.83;4.67;;;;;;;4.75;75.28;98595.44;4981051;28;20458;-64
2022/02/21 06:41:18;;;;;;;12.97;4.30;;;;;;;5.00;74.39;98593.69;4980264;28;20652;-64
2022/02/21 06:43:43;;;;;;;11.80;5.60;;;;;;;4.56;74.84;98590.34;4980399;28;20584;-64
2022/02/21 06:46:09;;;;;;;8.33;4.10;;;;;;;4.96;74.31;98587.66;4980539;28;20176;-65
2022/02/21 06:48:35;;;;;;;11.97;4.20;;;;;;;5.14;73.25;98599.69;4980196;28;20164;-64
2022/02/21 06:51:00;;;;;;;9.00;3.73;;;;;;;5.23;72.66;98597.03;4980431;28;20391;-63
2022/02/21 06:53:25;;;;;;;11.93;4.33;;;;;;;4.94;72.81;98586.81;4980586;28;20545;-64
2022/02/21 06:55:51;;;;;;;10.07;4.60;;;;;;;5.08;72.94;98606.59;4978845;28;20238;-65
2022/02/21 06:58:16;;;;;;;10.83;4.50;;;;;;;5.03;72.33;98602.28;4980218;28;20176;-65
2022/02/21 07:00:42;;;;;;;12.33;4.30;;;;;;;5.08;71.99;98586.78;4980617;28;20569;-64
2022/02/21 07:03:08;;;;;;;14.40;4.90;;;;;;;4.82;72.80;98617.84;4979896;28;20590;-64
2022/02/21 07:05:33;;;;;;;10.57;4.30;;;;;;;5.04;72.26;98601.41;4980037;28;20448;-65
2022/02/21 07:07:58;;;;;;;10.23;4.20;;;;;;;4.99;72.69;98612.63;4980621;28;20247;-64
2022/02/21 07:10:24;;;;;;;12.57;4.10;;;;;;;4.73;72.97;98608.38;4979734;28;20434;-65
2022/02/21 07:12:49;;;;;;;11.77;4.63;;;;;;;4.99;72.83;98628.13;4979777;28;20172;-64
2022/02/21 07:15:14;;;;;;;11.00;4.00;;;;;;;4.93;73.34;98618.66;4980374;28;20577;-64
2022/02/21 07:17:41;;;;;;;18.67;5.47;;;;;;;4.76;74.64;98634.16;4979708;28;20247;-64
2022/02/21 07:20:15;;;;;;;12.13;4.23;;;;;;;4.45;76.19;98634.19;4979679;28;20200;-65
2022/02/21 07:22:44;;;;;;;14.10;4.80;;;;;;;4.50;76.81;98635.03;4964066;28;20508;-64
2022/02/21 07:25:11;;;;;;;13.80;4.70;;;;;;;4.17;77.69;98643.63;4979603;28;20411;-64
2022/02/21 07:28:03;;;;;;;9.57;4.33;;;;;;;4.11;79.63;98639.28;4979759;28;20449;-64
2022/02/21 07:30:30;;;;;;;8.70;4.10;;;;;;;4.35;79.43;98646.22;4958172;28;20398;-64
2022/02/21 07:32:56;;;;;;;15.37;5.27;;;;;;;4.20;78.43;98648.78;4979298;28;20427;-64
2022/02/21 07:35:21;;;;;;;16.60;4.80;;;;;;;4.37;79.43;98641.94;4943641;28;1047550;-64
2022/02/21 07:37:47;;;;;;;10.10;3.90;;;;;;;5.10;76.82;98635.84;4980340;28;20565;-64
2022/02/21 07:40:13;;;;;;;8.47;4.20;;;;;;;5.83;74.90;98623.50;4980635;28;20218;-64
2022/02/21 07:42:39;;;;;;;7.77;4.00;;;;;;;7.47;68.91;98620.41;4980447;28;20172;-64
2022/02/21 07:45:05;;;;;;;12.03;4.07;;;;;;;7.37;65.06;98617.06;4979985;28;20703;-65
2022/02/21 07:47:31;;;;;;;9.33;4.33;;;;;;;7.34;64.93;98632.63;4980601;28;20687;-64
2022/02/21 07:49:56;;;;;;;8.67;3.77;;;;;;;6.73;66.24;98622.03;4980260;28;20445;-64
2022/02/21 07:52:21;;;;;;;9.80;4.77;;;;;;;5.46;69.24;98652.09;4979988;28;20223;-64
2022/02/21 07:54:47;;;;;;;10.63;4.37;;;;;;;5.49;70.72;98660.69;4980505;28;20435;-65
2022/02/21 07:57:13;;;;;;;10.80;3.93;;;;;;;5.09;72.10;98658.22;4980116;28;20312;-64
2022/02/21 07:59:38;;;;;;;14.47;4.53;;;;;;;5.09;72.79;98659.94;4980046;28;20180;-65
2022/02/21 08:02:04;;;;;;;9.83;4.43;;;;;;;4.90;73.74;98660.00;4980428;28;20412;-64
2022/02/21 08:04:29;;;;;;;11.93;5.57;;;;;;;5.01;74.45;98670.31;4979432;28;20581;-64
2022/02/21 08:06:54;;;;;;;7.40;3.60;;;;;;;4.86;74.76;98691.84;4979601;28;20177;-64
2022/02/21 08:09:22;;;;;;;10.00;4.07;;;;;;;4.34;75.94;98688.38;4980322;28;20191;-64
2022/02/21 08:11:48;;;;;;;13.53;4.00;;;;;;;4.32;76.53;98682.31;4979635;28;20176;-63
2022/02/21 08:14:13;;;;;;;9.40;4.30;;;;;;;4.40;76.67;98664.28;4979500;28;20836;-64
2022/02/21 08:16:39;;;;;;;12.47;4.80;;;;;;;4.53;76.42;98672.88;4980064;28;20164;-64
2022/02/21 08:19:04;;;;;;;13.00;4.87;;;;;;;4.36;76.78;98680.63;4979547;28;20283;-64
2022/02/21 08:21:30;;;;;;;13.07;4.70;;;;;;;4.34;77.05;98695.22;4979471;28;20204;-63
2022/02/21 08:23:55;;;;;;;9.27;4.30;;;;;;;4.20;78.11;98693.47;4980035;28;20445;-64
2022/02/21 08:26:20;;;;;;;9.23;4.00;;;;;;;4.48;78.38;98718.44;4979482;28;20501;-64
2022/02/21 08:28:46;;;;;;;6.43;3.53;;;;;;;4.36;78.67;98720.16;4979487;28;20231;-63
2022/02/21 08:31:11;;;;;;;11.43;4.30;;;;;;;3.91;79.56;98726.03;4979900;28;20426;-64
2022/02/21 08:33:37;;;;;;;9.67;4.10;;;;;;;4.45;78.27;98727.09;4979271;28;20173;-64
2022/02/21 08:36:02;;;;;;;8.63;3.60;;;;;;;3.54;79.77;98729.31;4979384;28;20238;-64
2022/02/21 08:38:28;;;;;;;10.80;4.33;;;;;;;3.74;79.29;98716.53;4979720;28;20199;-63
2022/02/21 08:40:53;;;;;;;7.33;4.00;;;;;;;3.49;79.55;98718.13;4979301;28;20258;-64
2022/02/21 08:43:18;;;;;;;7.70;3.70;;;;;;;3.96;77.94;98716.63;4979196;28;20176;-64
2022/02/21 08:45:44;;;;;;;13.70;4.17;;;;;;;3.63;78.90;98711.31;4979800;28;20218;-64
2022/02/21 08:48:09;;;;;;;7.17;3.93;;;;;;;4.09;78.19;98707.22;4979022;28;20176;-63
2022/02/21 08:50:35;;;;;;;9.27;4.67;;;;;;;4.10;77.98;98708.91;4979038;28;20267;-65
2022/02/21 08:53:01;;;;;;;13.83;4.47;;;;;;;3.98;77.95;98702.03;4979805;28;20223;-65
2022/02/21 08:55:26;;;;;;;8.73;4.50;;;;;;;4.25;78.67;98705.53;4978976;28;20399;-66
2022/02/21 08:57:51;;;;;;;10.60;5.10;;;;;;;3.95;78.68;98694.25;4979143;28;20262;-64
2022/02/21 09:00:17;;;;;;;10.77;5.60;;;;;;;4.18;79.12;98696.91;4979574;28;20266;-65
2022/02/21 09:02:44;;;;;;;8.60;4.70;;;;;;;4.28;78.83;98688.34;4979135;28;20605;-64
2022/02/21 09:05:10;;;;;;;11.27;4.40;;;;;;;6.40;79.80;98667.19;4978949;28;20427;-52
2022/02/21 09:07:36;;;;;;;8.20;4.33;;;;;;;6.44;72.88;98675.78;4989533;28;20434;-57
2022/02/21 09:10:01;;;;;;;12.13;3.90;;;;;;;4.96;75.37;98695.25;4982631;28;20436;-66
2022/02/21 09:12:27;;;;;;;12.07;4.43;;;;;;;4.63;76.26;98684.94;4998451;28;20184;-65
2022/02/21 09:14:56;;;;;;;11.13;4.50;;;;;;;4.60;76.80;98677.22;4990186;28;20226;-66
2022/02/21 09:17:21;;;;;;;12.60;4.20;;;;;;;4.73;77.43;98685.81;4979005;28;20477;-64
2022/02/21 09:19:47;;;;;;;12.20;4.23;;;;;;;4.36;78.28;98696.09;4980892;28;20724;-64
2022/02/21 09:22:12;;;;;;;10.70;4.53;;;;;;;4.35;78.40;98682.31;4983391;28;20179;-64
2022/02/21 09:24:38;;;;;;;9.60;4.40;;;;;;;4.62;77.76;98678.06;5000784;28;20231;-64
2022/02/21 09:27:03;;;;;;;13.77;4.10;;;;;;;4.12;78.58;98681.44;5002170;28;20194;-65
2022/02/21 09:29:29;;;;;;;10.20;4.60;;;;;;;4.64;78.25;98684.09;5002357;28;20187;-64
2022/02/21 09:31:56;;;;;;;8.20;4.30;;;;;;;4.81;77.42;98683.22;5001961;28;20176;-65
2022/02/21 09:34:21;;;;;;;12.13;4.57;;;;;;;4.85;77.45;98697.84;5001737;28;20223;-65
2022/02/21 09:36:46;;;;;;;20.43;5.20;;;;;;;4.62;77.87;98687.53;5002496;28;20811;-65
2022/02/21 09:39:12;;;;;;;12.10;4.50;;;;;;;5.19;76.53;98687.47;5002032;28;20175;-65
2022/02/21 09:41:37;;;;;;;11.93;4.50;;;;;;;4.89;77.02;98694.41;4984142;28;20212;-66
2022/02/21 09:44:03;;;;;;;14.00;5.77;;;;;;;4.84;76.19;98697.00;4982757;28;20183;-65
2022/02/21 09:46:29;;;;;;;13.83;5.40;;;;;;;4.85;76.89;98696.13;4982163;28;20682;-66
2022/02/21 09:48:57;;;;;;;12.90;4.50;;;;;;;4.99;76.77;98696.13;4981611;28;20472;-65
2022/02/21 09:51:22;;;;;;;13.60;4.83;;;;;;;4.87;76.16;98696.13;4982693;28;20459;-64
2022/02/21 09:53:49;;;;;;;10.67;4.63;;;;;;;5.29;75.71;98696.94;4981255;28;20416;-65
2022/02/21 09:56:14;;;;;;;14.53;5.60;;;;;;;5.27;74.36;98692.66;4982346;28;20180;-66
2022/02/21 09:58:40;;;;;;;14.33;5.50;;;;;;;5.75;73.70;98701.13;4982423;28;20732;-67
2022/02/21 10:01:06;;;;;;;8.73;4.40;;;;;;;5.38;74.03;98698.63;4982405;28;20216;-67
2022/02/21 10:03:39;;;;;;;11.43;4.07;;;;;;;5.04;74.06;98690.94;4982077;28;20176;-66
2022/02/21 10:06:16;;;;;;;10.80;4.70;;;;;;;5.35;74.30;98701.22;4982476;28;20411;-70
2022/02/21 10:08:51;;;;;;;10.70;4.77;;;;;;;5.60;73.64;98689.09;4981883;28;20742;-65
2022/02/21 10:11:25;;;;;;;12.60;4.40;;;;;;;5.63;73.37;98696.84;4981960;28;20412;-67
2022/02/21 10:13:55;;;;;;;13.97;4.40;;;;;;;5.94;71.72;98695.84;4983902;28;20411;-69
2022/02/21 10:16:20;;;;;;;7.93;4.10;;;;;;;6.09;71.66;98694.94;5001447;28;20766;-69
2022/02/21 10:18:45;;;;;;;16.93;5.23;;;;;;;5.87;70.91;98707.94;4984343;28;20415;-68
2022/02/21 10:21:11;;;;;;;13.13;4.93;;;;;;;6.20;70.75;98696.63;5000924;28;20215;-68
2022/02/21 10:23:36;;;;;;;9.37;4.40;;;;;;;5.94;70.27;98714.84;5001515;28;20210;-68
2022/02/21 10:26:06;;;;;;;6.60;3.93;;;;;;;6.04;70.45;98701.00;5001088;28;20179;-73
2022/02/21 10:28:39;;;;;;;9.30;4.00;;;;;;;6.18;70.47;98700.06;5001300;28;20325;-67
2022/02/21 10:31:15;;;;;;;11.90;4.00;;;;;;;6.44;70.18;98712.00;4983893;28;20425;-65
2022/02/21 10:33:47;;;;;;;12.00;4.30;;;;;;;6.32;69.70;98712.94;5000788;28;20480;-65
2022/02/21 10:36:29;;;;;;;12.37;4.20;;;;;;;6.34;69.05;98717.22;5000923;28;20777;-65
2022/02/21 10:38:55;;;;;;;6.57;3.47;;;;;;;6.00;69.19;98742.44;5001287;28;20411;-66
2022/02/21 10:41:22;;;;;;;15.43;4.63;;;;;;;6.06;69.72;98729.44;5001186;28;20463;-67
2022/02/21 10:43:48;;;;;;;10.17;4.40;;;;;;;6.21;69.60;98723.34;5001002;28;20202;-65
2022/02/21 10:46:13;;;;;;;10.57;4.50;;;;;;;6.13;69.46;98728.56;4984252;28;20426;-65
2022/02/21 10:48:43;;;;;;;10.70;4.30;;;;;;;6.18;70.04;98732.00;5001324;28;20553;-66
2022/02/21 10:51:09;;;;;;;10.27;3.70;;;;;;;5.72;70.00;98743.38;5003008;28;20198;-67
2022/02/21 10:53:40;;;;;;;13.20;5.30;;;;;;;5.87;70.03;98742.44;5001769;28;20498;-67
2022/02/21 10:56:06;;;;;;;10.43;4.10;;;;;;;5.58;70.41;98745.13;5000687;28;20257;-67
2022/02/21 10:58:31;;;;;;;7.87;3.70;;;;;;;5.63;70.33;98750.25;4983619;28;20750;-66
2022/02/21 11:00:57;;;;;;;14.30;4.23;;;;;;;5.97;69.86;98737.25;5000984;28;20615;-67
2022/02/21 11:03:24;;;;;;;12.87;4.67;;;;;;;6.28;69.85;98742.28;5000318;28;20199;-66
2022/02/21 11:05:51;;;;;;;9.60;5.57;;;;;;;6.20;69.90;98755.28;5000522;28;20175;-66
2022/02/21 11:08:17;;;;;;;10.53;4.67;;;;;;;5.66;71.06;98758.88;5001142;28;20415;-67
2022/02/21 11:10:44;;;;;;;8.83;4.10;;;;;;;5.80;71.06;98761.41;5000557;28;20744;-67
2022/02/21 11:13:13;;;;;;;8.40;4.73;;;;;;;5.59;70.95;98764.06;5000307;28;20538;-65
2022/02/21 11:15:39;;;;;;;12.27;4.83;;;;;;;5.40;70.73;98769.28;4984017;28;20702;-66
2022/02/21 11:18:05;;;;;;;10.47;4.03;;;;;;;5.30;71.61;98770.13;4980525;28;20499;-67
2022/02/21 11:20:30;;;;;;;5.27;3.83;;;;;;;5.49;71.81;98766.66;4980093;28;20474;-67
2022/02/21 11:22:56;;;;;;;10.40;4.47;;;;;;;5.46;72.39;98761.50;4980862;28;20423;-68
2022/02/21 11:25:29;;;;;;;6.60;3.97;;;;;;;5.34;72.68;98762.38;4983002;28;20180;-71
2022/02/21 11:28:03;;;;;;;8.77;3.97;;;;;;;5.55;73.42;98773.56;4981604;28;20177;-65
2022/02/21 11:30:29;;;;;;;8.60;4.10;;;;;;;5.42;73.42;98749.44;4982496;28;20424;-67